Time,TemperatureF,DewpointF,PressureIn,WindDirection,WindDirectionDegrees,WindSpeedMPH,WindSpeedGustMPH,Humidity,HourlyPrecipIn,Conditions,Clouds,dailyrainin,SoftwareType,DateUTC
2013-02-15 00:01:00,10.1,5.4,30.16,WNW,290,2.0,3.0,81,0.00,,CLR,0.00,VWS V14.01,2013-02-15 06:01:00,
2013-02-15 00:06:00,10.2,5.3,30.17,WNW,287,3.0,3.0,80,0.00,,CLR,0.00,VWS V14.01,2013-02-15 06:06:00,
2013-02-15 00:11:00,10.2,5.3,30.17,West,269,2.0,3.0,80,0.00,,CLR,0.00,VWS V14.01,2013-02-15 06:11:00,
2013-02-15 00:16:00,10.0,5.1,30.17,WNW,283,2.0,3.0,80,0.00,,CLR,0.00,VWS V14.01,2013-02-15 06:16:00,
2013-02-15 00:23:00,9.8,4.9,30.17,WNW,288,3.0,3.0,80,0.00,,CLR,0.00,VWS V14.01,2013-02-15 06:23:00,
2013-02-15 00:29:00,9.7,4.8,30.17,WNW,282,2.0,3.0,80,0.00,,CLR,0.00,VWS V14.01,2013-02-15 06:29:00,
2013-02-15 00:35:00,9.4,4.2,30.17,West,273,3.0,3.0,79,0.00,,CLR,0.00,VWS V14.01,2013-02-15 06:35:00,
2013-02-15 00:41:00,9.1,3.9,30.17,WNW,284,2.0,3.0,79,0.00,,CLR,0.00,VWS V14.01,2013-02-15 06:41:00,
2013-02-15 00:46:00,8.8,3.6,30.17,WNW,284,2.0,3.0,79,0.00,,CLR,0.00,VWS V14.01,2013-02-15 06:46:00,
2013-02-15 00:51:00,8.6,3.4,30.17,West,281,1.0,2.0,79,0.00,,CLR,0.00,VWS V14.01,2013-02-15 06:51:00,
2013-02-15 00:56:00,8.4,3.2,30.17,West,269,2.0,2.0,79,0.00,,CLR,0.00,VWS V14.01,2013-02-15 06:56:00,
2013-02-15 01:01:00,8.1,3.0,30.17,West,279,2.0,2.0,79,0.00,,CLR,0.00,VWS V14.01,2013-02-15 07:01:00,
2013-02-15 01:06:00,7.6,1.9,30.17,West,277,1.0,3.0,77,0.00,,CLR,0.00,VWS V14.01,2013-02-15 07:06:00,
2013-02-15 01:11:00,6.7,1.0,30.17,WNW,284,2.0,3.0,77,0.00,,CLR,0.00,VWS V14.01,2013-02-15 07:11:00,
2013-02-15 01:16:00,6.1,0.7,30.17,WNW,285,2.0,3.0,78,0.00,,CLR,0.00,VWS V14.01,2013-02-15 07:16:00,
2013-02-15 01:21:00,5.6,0.5,30.17,West,277,2.0,3.0,79,0.00,,CLR,0.00,VWS V14.01,2013-02-15 07:21:00,
2013-02-15 01:26:00,5.2,0.4,30.17,West,281,2.0,3.0,80,0.00,,CLR,0.00,VWS V14.01,2013-02-15 07:26:00,
2013-02-15 01:31:00,4.9,0.1,30.17,West,273,2.0,2.0,80,0.00,,CLR,0.00,VWS V14.01,2013-02-15 07:31:00,
2013-02-15 01:36:00,4.4,-0.4,30.17,West,279,2.0,2.0,80,0.00,,CLR,0.00,VWS V14.01,2013-02-15 07:36:00,
2013-02-15 01:41:00,4.3,0.0,30.18,West,276,3.0,3.0,82,0.00,,CLR,0.00,VWS V14.01,2013-02-15 07:41:00,
2013-02-15 01:46:00,5.1,1.1,30.18,WNW,287,2.0,3.0,83,0.00,,CLR,0.00,VWS V14.01,2013-02-15 07:46:00,
2013-02-15 01:51:00,5.6,1.3,30.18,West,273,1.0,3.0,82,0.00,,CLR,0.00,VWS V14.01,2013-02-15 07:51:00,
2013-02-15 01:56:00,5.6,0.8,30.18,West,270,3.0,3.0,80,0.00,,CLR,0.00,VWS V14.01,2013-02-15 07:56:00,
2013-02-15 02:01:00,5.4,0.3,30.18,West,277,3.0,3.0,79,0.00,,CLR,0.00,VWS V14.01,2013-02-15 08:01:00,
2013-02-15 02:06:00,5.2,0.1,30.18,West,274,2.0,4.0,79,0.00,,CLR,0.00,VWS V14.01,2013-02-15 08:06:00,
2013-02-15 02:11:00,5.1,0.0,30.18,West,269,4.0,4.0,79,0.00,,CLR,0.00,VWS V14.01,2013-02-15 08:11:00,
2013-02-15 02:16:00,5.0,-0.1,30.19,West,266,3.0,5.0,79,0.00,,CLR,0.00,VWS V14.01,2013-02-15 08:16:00,
2013-02-15 02:21:00,4.8,-0.5,30.19,West,276,3.0,4.0,78,0.00,,CLR,0.00,VWS V14.01,2013-02-15 08:21:00,
2013-02-15 02:26:00,4.6,-0.7,30.19,West,278,3.0,3.0,78,0.00,,CLR,0.00,VWS V14.01,2013-02-15 08:26:00,
2013-02-15 02:31:00,4.4,-0.7,30.19,West,264,2.0,2.0,79,0.00,,CLR,0.00,VWS V14.01,2013-02-15 08:31:00,
2013-02-15 02:37:00,4.3,-1.0,30.19,West,273,3.0,3.0,78,0.00,,SCT100,0.00,VWS V14.01,2013-02-15 08:37:00,
2013-02-15 02:43:00,4.0,-1.3,30.19,West,281,1.0,2.0,78,0.00,,SCT100,0.00,VWS V14.01,2013-02-15 08:43:00,
2013-02-15 02:49:00,3.7,-1.6,30.19,West,274,3.0,3.0,78,0.00,,SCT100,0.00,VWS V14.01,2013-02-15 08:49:00,
2013-02-15 02:55:00,3.8,-1.0,30.19,West,270,2.0,3.0,80,0.00,,SCT100,0.00,VWS V14.01,2013-02-15 08:55:00,
2013-02-15 03:01:00,4.0,-0.8,30.19,West,271,2.0,3.0,80,0.00,,SCT100,0.00,VWS V14.01,2013-02-15 09:01:00,
2013-02-15 03:06:00,4.2,-0.3,30.19,West,273,2.0,3.0,81,0.00,,SCT100,0.00,VWS V14.01,2013-02-15 09:06:00,
2013-02-15 03:11:00,4.4,-0.1,30.20,WNW,288,2.0,4.0,81,0.00,,SCT100,0.00,VWS V14.01,2013-02-15 09:11:00,
2013-02-15 03:16:00,4.7,0.2,30.19,West,276,5.0,5.0,81,0.00,,SCT100,0.00,VWS V14.01,2013-02-15 09:16:00,
2013-02-15 03:21:00,5.0,0.5,30.20,WNW,287,2.0,5.0,81,0.00,,SCT100,0.00,VWS V14.01,2013-02-15 09:21:00,
2013-02-15 03:26:00,5.2,0.6,30.19,WNW,284,2.0,4.0,81,0.00,,SCT100,0.00,VWS V14.01,2013-02-15 09:26:00,
2013-02-15 03:31:00,5.3,0.8,30.20,West,266,3.0,5.0,81,0.00,,SCT100,0.00,VWS V14.01,2013-02-15 09:31:00,
2013-02-15 03:36:00,5.2,0.6,30.20,WNW,290,4.0,4.0,81,0.00,,OVC090,0.00,VWS V14.01,2013-02-15 09:36:00,
2013-02-15 03:41:00,5.1,0.6,30.20,West,276,2.0,4.0,81,0.00,,OVC090,0.00,VWS V14.01,2013-02-15 09:41:00,
2013-02-15 03:46:00,5.0,0.5,30.20,West,267,4.0,4.0,81,0.00,,OVC090,0.00,VWS V14.01,2013-02-15 09:46:00,
2013-02-15 03:51:00,4.9,0.6,30.20,WNW,285,3.0,5.0,82,0.00,,OVC090,0.00,VWS V14.01,2013-02-15 09:51:00,
2013-02-15 03:56:00,4.7,0.4,30.20,West,278,2.0,3.0,82,0.00,,OVC090,0.00,VWS V14.01,2013-02-15 09:56:00,
2013-02-15 04:01:00,4.5,0.2,30.20,WNW,287,2.0,3.0,82,0.00,,OVC090,0.00,VWS V14.01,2013-02-15 10:01:00,
2013-02-15 04:06:00,4.4,0.4,30.20,West,281,2.0,5.0,83,0.00,,OVC090,0.00,VWS V14.01,2013-02-15 10:06:00,
2013-02-15 04:11:00,4.3,0.3,30.20,West,273,2.0,3.0,83,0.00,,OVC090,0.00,VWS V14.01,2013-02-15 10:11:00,
2013-02-15 04:16:00,4.2,0.2,30.21,West,271,2.0,4.0,83,0.00,,OVC090,0.00,VWS V14.01,2013-02-15 10:16:00,
2013-02-15 04:21:00,4.1,0.1,30.21,West,281,1.0,3.0,83,0.00,,OVC090,0.00,VWS V14.01,2013-02-15 10:21:00,
2013-02-15 04:26:00,4.0,0.0,30.21,West,273,1.0,3.0,83,0.00,,OVC090,0.00,VWS V14.01,2013-02-15 10:26:00,
2013-02-15 04:31:00,3.8,-0.2,30.21,WNW,283,2.0,3.0,83,0.00,,OVC090,0.00,VWS V14.01,2013-02-15 10:31:00,
2013-02-15 04:36:00,3.5,-0.5,30.21,West,277,1.0,3.0,83,0.00,,BKN090,0.00,VWS V14.01,2013-02-15 10:36:00,
2013-02-15 04:41:00,3.2,-0.8,30.21,West,274,2.0,3.0,83,0.00,,BKN090,0.00,VWS V14.01,2013-02-15 10:41:00,
2013-02-15 04:46:00,2.8,-1.2,30.22,West,271,1.0,2.0,83,0.00,,BKN090,0.00,VWS V14.01,2013-02-15 10:46:00,
2013-02-15 04:51:00,2.5,-1.5,30.22,West,280,1.0,2.0,83,0.00,,BKN090,0.00,VWS V14.01,2013-02-15 10:51:00,
2013-02-15 04:56:00,2.4,-1.3,30.22,West,278,0.0,1.0,84,0.00,,BKN090,0.00,VWS V14.01,2013-02-15 10:56:00,
2013-02-15 05:01:00,2.4,-1.1,30.22,WNW,288,1.0,2.0,85,0.00,,BKN090,0.00,VWS V14.01,2013-02-15 11:01:00,
2013-02-15 05:06:00,2.3,-1.4,30.22,West,266,0.0,2.0,84,0.00,,OVC080,0.00,VWS V14.01,2013-02-15 11:06:00,
2013-02-15 05:11:00,2.1,-1.4,30.22,West,267,0.0,1.0,85,0.00,,OVC080,0.00,VWS V14.01,2013-02-15 11:11:00,
2013-02-15 05:16:00,2.0,-1.5,30.22,West,266,0.0,2.0,85,0.00,,OVC080,0.00,VWS V14.01,2013-02-15 11:16:00,
2013-02-15 05:21:00,1.7,-1.8,30.22,West,266,1.0,1.0,85,0.00,,OVC080,0.00,VWS V14.01,2013-02-15 11:21:00,
2013-02-15 05:26:00,1.3,-2.4,30.22,WSW,256,0.0,1.0,84,0.00,,OVC080,0.00,VWS V14.01,2013-02-15 11:26:00,
2013-02-15 05:31:00,0.3,-3.6,30.23,WSW,253,1.0,1.0,83,0.00,,OVC080,0.00,VWS V14.01,2013-02-15 11:31:00,
2013-02-15 05:36:00,-0.5,-4.4,30.23,West,264,0.0,1.0,83,0.00,,BKN060,0.00,VWS V14.01,2013-02-15 11:36:00,
2013-02-15 05:41:00,-1.1,-4.8,30.23,West,264,0.0,1.0,84,0.00,,BKN060,0.00,VWS V14.01,2013-02-15 11:41:00,
2013-02-15 05:46:00,-1.6,-5.2,30.23,West,263,0.0,0.0,84,0.00,,BKN060,0.00,VWS V14.01,2013-02-15 11:46:00,
2013-02-15 05:51:00,-2.1,-5.7,30.23,West,263,0.0,1.0,84,0.00,,BKN060,0.00,VWS V14.01,2013-02-15 11:51:00,
2013-02-15 05:56:00,-2.5,-6.1,30.23,WSW,255,1.0,1.0,84,0.00,,BKN060,0.00,VWS V14.01,2013-02-15 11:56:00,
2013-02-15 06:01:00,-2.8,-6.2,30.24,WSW,255,0.0,1.0,85,0.00,,BKN060,0.00,VWS V14.01,2013-02-15 12:01:00,
2013-02-15 06:06:00,-2.7,-5.8,30.24,West,264,0.0,1.0,86,0.00,,BKN060,0.00,VWS V14.01,2013-02-15 12:06:00,
2013-02-15 06:11:00,-2.5,-5.4,30.24,WSW,255,0.0,1.0,87,0.00,,BKN060,0.00,VWS V14.01,2013-02-15 12:11:00,
2013-02-15 06:16:00,-2.2,-5.1,30.24,West,274,0.0,1.0,87,0.00,,BKN060,0.00,VWS V14.01,2013-02-15 12:16:00,
2013-02-15 06:21:00,-1.9,-4.6,30.24,WSW,245,1.0,2.0,88,0.00,,BKN060,0.00,VWS V14.01,2013-02-15 12:21:00,
2013-02-15 06:26:00,-1.8,-4.5,30.24,West,268,1.0,1.0,88,0.00,,BKN060,0.00,VWS V14.01,2013-02-15 12:26:00,
2013-02-15 06:31:00,-1.9,-4.8,30.24,West,268,0.0,1.0,87,0.00,,BKN060,0.00,VWS V14.01,2013-02-15 12:31:00,
2013-02-15 06:36:00,-2.2,-5.1,30.24,West,269,0.0,1.0,87,0.00,,CLR,0.00,VWS V14.01,2013-02-15 12:36:00,
2013-02-15 06:41:00,-2.8,-5.9,30.25,West,269,0.0,0.0,86,0.00,,CLR,0.00,VWS V14.01,2013-02-15 12:41:00,
2013-02-15 06:46:00,-3.5,-6.6,30.25,West,268,0.0,0.0,86,0.00,,CLR,0.00,VWS V14.01,2013-02-15 12:46:00,
2013-02-15 06:51:00,-4.1,-7.2,30.25,West,269,0.0,0.0,86,0.00,,CLR,0.00,VWS V14.01,2013-02-15 12:51:00,
2013-02-15 06:56:00,-4.3,-7.2,30.25,West,268,0.0,0.0,87,0.00,,CLR,0.00,VWS V14.01,2013-02-15 12:56:00,
2013-02-15 07:01:00,-4.8,-7.9,30.25,West,269,0.0,0.0,86,0.00,,CLR,0.00,VWS V14.01,2013-02-15 13:01:00,
2013-02-15 07:06:00,-4.9,-7.8,30.26,West,270,0.0,0.0,87,0.00,,CLR,0.00,VWS V14.01,2013-02-15 13:06:00,
2013-02-15 07:11:00,-5.0,-7.9,30.26,West,269,0.0,0.0,87,0.00,,CLR,0.00,VWS V14.01,2013-02-15 13:11:00,
2013-02-15 07:16:00,-5.3,-8.2,30.26,West,269,0.0,0.0,87,0.00,,CLR,0.00,VWS V14.01,2013-02-15 13:16:00,
2013-02-15 07:21:00,-5.5,-8.4,30.26,West,269,0.0,0.0,87,0.00,,CLR,0.00,VWS V14.01,2013-02-15 13:21:00,
2013-02-15 07:26:00,-5.5,-8.4,30.26,West,269,0.0,0.0,87,0.00,,CLR,0.00,VWS V14.01,2013-02-15 13:26:00,
2013-02-15 07:31:00,-5.5,-8.4,30.27,West,269,0.0,0.0,87,0.00,,CLR,0.00,VWS V14.01,2013-02-15 13:31:00,
2013-02-15 07:36:00,-5.5,-8.4,30.27,West,269,0.0,0.0,87,0.00,,CLR,0.00,VWS V14.01,2013-02-15 13:36:00,
2013-02-15 07:41:00,-5.5,-8.4,30.27,West,269,0.0,0.0,87,0.00,,CLR,0.00,VWS V14.01,2013-02-15 13:41:00,
2013-02-15 07:46:00,-5.2,-7.8,30.27,West,269,0.0,0.0,88,0.00,,CLR,0.00,VWS V14.01,2013-02-15 13:46:00,
2013-02-15 07:51:00,-4.5,-7.1,30.27,West,269,1.0,1.0,88,0.00,,CLR,0.00,VWS V14.01,2013-02-15 13:51:00,
2013-02-15 07:56:00,-3.4,-5.8,30.27,West,267,0.0,1.0,89,0.00,,CLR,0.00,VWS V14.01,2013-02-15 13:56:00,
2013-02-15 08:01:00,-2.3,-4.7,30.28,West,274,1.0,2.0,89,0.00,,CLR,0.00,VWS V14.01,2013-02-15 14:01:00,
2013-02-15 08:06:00,-1.0,-3.5,30.28,West,273,1.0,2.0,89,0.00,,CLR,0.00,VWS V14.01,2013-02-15 14:06:00,
2013-02-15 08:11:00,-0.1,-2.6,30.28,WNW,283,2.0,3.0,89,0.00,,CLR,0.00,VWS V14.01,2013-02-15 14:11:00,
2013-02-15 08:16:00,0.6,-1.9,30.28,West,269,3.0,4.0,89,0.00,,CLR,0.00,VWS V14.01,2013-02-15 14:16:00,
2013-02-15 08:21:00,1.2,-1.5,30.28,West,273,3.0,4.0,88,0.00,,CLR,0.00,VWS V14.01,2013-02-15 14:21:00,
2013-02-15 08:26:00,1.6,-1.4,30.29,West,271,1.0,3.0,87,0.00,,CLR,0.00,VWS V14.01,2013-02-15 14:26:00,
2013-02-15 08:31:00,1.8,-1.2,30.29,West,276,1.0,3.0,87,0.00,,CLR,0.00,VWS V14.01,2013-02-15 14:31:00,
2013-02-15 08:36:00,2.2,-1.0,30.29,West,271,3.0,3.0,86,0.00,,CLR,0.00,VWS V14.01,2013-02-15 14:36:00,
2013-02-15 08:41:00,2.7,-0.3,30.29,West,278,2.0,3.0,87,0.00,,CLR,0.00,VWS V14.01,2013-02-15 14:41:00,
2013-02-15 08:46:00,3.6,0.6,30.29,West,277,1.0,4.0,87,0.00,,CLR,0.00,VWS V14.01,2013-02-15 14:46:00,
2013-02-15 08:51:00,4.3,1.3,30.29,WNW,284,2.0,3.0,87,0.00,,CLR,0.00,VWS V14.01,2013-02-15 14:51:00,
2013-02-15 08:56:00,5.3,2.3,30.30,West,273,2.0,2.0,87,0.00,,CLR,0.00,VWS V14.01,2013-02-15 14:56:00,
2013-02-15 09:01:00,6.0,2.7,30.30,West,273,3.0,4.0,86,0.00,,CLR,0.00,VWS V14.01,2013-02-15 15:01:00,
2013-02-15 09:06:00,6.6,3.1,30.30,WNW,284,2.0,4.0,85,0.00,,CLR,0.00,VWS V14.01,2013-02-15 15:06:00,
2013-02-15 09:11:00,7.2,3.4,30.30,West,267,3.0,3.0,84,0.00,,CLR,0.00,VWS V14.01,2013-02-15 15:11:00,
2013-02-15 09:16:00,7.7,3.9,30.30,West,267,3.0,4.0,84,0.00,,CLR,0.00,VWS V14.01,2013-02-15 15:16:00,
2013-02-15 09:21:00,8.2,4.1,30.30,WNW,293,3.0,3.0,83,0.00,,CLR,0.00,VWS V14.01,2013-02-15 15:21:00,
2013-02-15 09:26:00,8.6,4.0,30.30,West,281,3.0,6.0,81,0.00,,CLR,0.00,VWS V14.01,2013-02-15 15:26:00,
2013-02-15 09:31:00,9.0,4.4,30.30,WNW,294,3.0,3.0,81,0.00,,CLR,0.00,VWS V14.01,2013-02-15 15:31:00,
2013-02-15 09:36:00,9.4,4.5,30.30,NW,325,4.0,4.0,80,0.00,,CLR,0.00,VWS V14.01,2013-02-15 15:36:00,
2013-02-15 09:41:00,9.9,4.4,30.30,WNW,290,3.0,5.0,78,0.00,,CLR,0.00,VWS V14.01,2013-02-15 15:41:00,
2013-02-15 09:46:00,10.3,4.5,30.30,NNW,348,6.0,6.0,77,0.00,,CLR,0.00,VWS V14.01,2013-02-15 15:46:00,
2013-02-15 09:51:00,10.5,4.4,30.30,WNW,292,2.0,6.0,76,0.00,,CLR,0.00,VWS V14.01,2013-02-15 15:51:00,
2013-02-15 09:56:00,10.7,4.3,30.30,WNW,300,3.0,5.0,75,0.00,,CLR,0.00,VWS V14.01,2013-02-15 15:56:00,
2013-02-15 10:01:00,11.0,4.6,30.30,NW,311,4.0,4.0,75,0.00,,CLR,0.00,VWS V14.01,2013-02-15 16:01:00,
2013-02-15 10:06:00,11.2,4.5,30.30,WNW,300,4.0,4.0,74,0.00,,CLR,0.00,VWS V14.01,2013-02-15 16:06:00,
2013-02-15 10:11:00,11.4,4.4,30.30,WNW,290,2.0,5.0,73,0.00,,CLR,0.00,VWS V14.01,2013-02-15 16:11:00,
2013-02-15 10:16:00,12.0,5.0,30.30,WNW,301,3.0,5.0,73,0.00,,CLR,0.00,VWS V14.01,2013-02-15 16:16:00,
2013-02-15 10:21:00,12.4,5.1,30.30,NW,316,3.0,3.0,72,0.00,,CLR,0.00,VWS V14.01,2013-02-15 16:21:00,
2013-02-15 10:26:00,12.7,5.4,30.30,NW,308,3.0,4.0,72,0.00,,CLR,0.00,VWS V14.01,2013-02-15 16:26:00,
2013-02-15 10:31:00,12.9,5.3,30.30,NW,323,2.0,6.0,71,0.00,,CLR,0.00,VWS V14.01,2013-02-15 16:31:00,
2013-02-15 10:36:00,12.9,5.0,30.30,WNW,293,2.0,6.0,70,0.00,,CLR,0.00,VWS V14.01,2013-02-15 16:36:00,
2013-02-15 10:41:00,13.1,5.2,30.30,WNW,287,3.0,5.0,70,0.00,,CLR,0.00,VWS V14.01,2013-02-15 16:41:00,
2013-02-15 10:46:00,13.2,5.3,30.30,WNW,284,5.0,5.0,70,0.00,,CLR,0.00,VWS V14.01,2013-02-15 16:46:00,
2013-02-15 10:51:00,13.2,5.3,30.30,NNW,330,1.0,5.0,70,0.00,,CLR,0.00,VWS V14.01,2013-02-15 16:51:00,
2013-02-15 10:56:00,13.5,5.6,30.30,WNW,297,4.0,4.0,70,0.00,,CLR,0.00,VWS V14.01,2013-02-15 16:56:00,
2013-02-15 11:01:00,13.9,5.9,30.30,NW,315,5.0,5.0,70,0.00,,CLR,0.00,VWS V14.01,2013-02-15 17:01:00,
2013-02-15 11:06:00,13.9,5.6,30.30,NW,311,1.0,5.0,69,0.00,,CLR,0.00,VWS V14.01,2013-02-15 17:06:00,
2013-02-15 11:11:00,14.0,5.7,30.31,NW,320,3.0,6.0,69,0.00,,CLR,0.00,VWS V14.01,2013-02-15 17:11:00,
2013-02-15 11:16:00,14.4,5.8,30.31,WNW,290,3.0,5.0,68,0.00,,CLR,0.00,VWS V14.01,2013-02-15 17:16:00,
2013-02-15 11:21:00,14.6,6.3,30.30,West,264,2.0,4.0,69,0.00,,CLR,0.00,VWS V14.01,2013-02-15 17:21:00,
2013-02-15 11:26:00,14.6,5.7,30.30,NNW,340,2.0,5.0,67,0.00,,CLR,0.00,VWS V14.01,2013-02-15 17:26:00,
2013-02-15 11:31:00,14.9,6.3,30.30,NW,324,3.0,3.0,68,0.00,,CLR,0.00,VWS V14.01,2013-02-15 17:31:00,
2013-02-15 11:36:00,15.0,6.0,30.30,NW,317,5.0,8.0,67,0.00,,CLR,0.00,VWS V14.01,2013-02-15 17:36:00,
2013-02-15 11:41:00,15.1,6.1,30.30,WNW,296,6.0,7.0,67,0.00,,CLR,0.00,VWS V14.01,2013-02-15 17:41:00,
2013-02-15 11:46:00,15.3,6.3,30.30,WNW,293,4.0,6.0,67,0.00,,CLR,0.00,VWS V14.01,2013-02-15 17:46:00,
2013-02-15 11:51:00,15.3,6.3,30.30,WNW,301,1.0,9.0,67,0.00,,CLR,0.00,VWS V14.01,2013-02-15 17:51:00,
2013-02-15 11:57:00,15.4,6.4,30.30,WNW,300,6.0,6.0,67,0.00,,CLR,0.00,VWS V14.01,2013-02-15 17:57:00,
2013-02-15 12:03:00,15.5,6.5,30.30,WSW,253,4.0,7.0,67,0.00,,CLR,0.00,VWS V14.01,2013-02-15 18:03:00,
2013-02-15 12:09:00,15.8,6.5,30.30,West,281,6.0,8.0,66,0.00,,CLR,0.00,VWS V14.01,2013-02-15 18:09:00,
2013-02-15 12:15:00,15.8,6.1,30.29,WNW,303,4.0,7.0,65,0.00,,CLR,0.00,VWS V14.01,2013-02-15 18:15:00,
2013-02-15 12:21:00,15.9,6.6,30.29,WNW,290,4.0,6.0,66,0.00,,CLR,0.00,VWS V14.01,2013-02-15 18:21:00,
2013-02-15 12:26:00,15.9,6.2,30.29,NW,325,3.0,6.0,65,0.00,,CLR,0.00,VWS V14.01,2013-02-15 18:26:00,
2013-02-15 12:31:00,16.1,6.8,30.29,NNW,330,5.0,5.0,66,0.00,,CLR,0.00,VWS V14.01,2013-02-15 18:31:00,
2013-02-15 12:36:00,16.2,6.5,30.29,West,274,2.0,6.0,65,0.00,,CLR,0.00,VWS V14.01,2013-02-15 18:36:00,
2013-02-15 12:41:00,16.6,6.9,30.29,WNW,303,3.0,5.0,65,0.00,,CLR,0.00,VWS V14.01,2013-02-15 18:41:00,
2013-02-15 12:46:00,16.5,6.8,30.29,WNW,300,10.0,10.0,65,0.00,,CLR,0.00,VWS V14.01,2013-02-15 18:46:00,
2013-02-15 12:51:00,16.5,6.5,30.29,NNW,338,5.0,10.0,64,0.00,,CLR,0.00,VWS V14.01,2013-02-15 18:51:00,
2013-02-15 12:56:00,16.6,6.6,30.29,NW,307,2.0,5.0,64,0.00,,CLR,0.00,VWS V14.01,2013-02-15 18:56:00,
2013-02-15 13:01:00,16.7,6.3,30.29,NW,319,5.0,6.0,63,0.00,,CLR,0.00,VWS V14.01,2013-02-15 19:01:00,
2013-02-15 13:06:00,17.0,7.3,30.29,NW,306,2.0,7.0,65,0.00,,CLR,0.00,VWS V14.01,2013-02-15 19:06:00,
2013-02-15 13:11:00,17.4,7.0,30.29,NW,321,3.0,5.0,63,0.00,,CLR,0.00,VWS V14.01,2013-02-15 19:11:00,
2013-02-15 13:16:00,17.2,6.8,30.29,NW,315,6.0,7.0,63,0.00,,CLR,0.00,VWS V14.01,2013-02-15 19:16:00,
2013-02-15 13:21:00,17.2,7.1,30.29,WNW,288,4.0,8.0,64,0.00,,CLR,0.00,VWS V14.01,2013-02-15 19:21:00,
2013-02-15 13:26:00,17.0,7.3,30.29,WNW,296,2.0,6.0,65,0.00,,CLR,0.00,VWS V14.01,2013-02-15 19:26:00,
2013-02-15 13:31:00,16.8,6.8,30.28,West,280,10.0,10.0,64,0.00,,CLR,0.00,VWS V14.01,2013-02-15 19:31:00,
2013-02-15 13:36:00,16.8,7.1,30.28,WSW,256,5.0,7.0,65,0.00,,CLR,0.00,VWS V14.01,2013-02-15 19:36:00,
2013-02-15 13:41:00,16.9,7.2,30.28,West,263,3.0,7.0,65,0.00,,CLR,0.00,VWS V14.01,2013-02-15 19:41:00,
2013-02-15 13:46:00,16.9,7.2,30.28,West,270,3.0,6.0,65,0.00,,CLR,0.00,VWS V14.01,2013-02-15 19:46:00,
2013-02-15 13:51:00,17.1,7.0,30.28,West,274,6.0,7.0,64,0.00,,CLR,0.00,VWS V14.01,2013-02-15 19:51:00,
2013-02-15 13:56:00,16.9,6.8,30.28,NW,305,3.0,8.0,64,0.00,,CLR,0.00,VWS V14.01,2013-02-15 19:56:00,
2013-02-15 14:01:00,16.8,7.1,30.28,WNW,301,5.0,6.0,65,0.00,,CLR,0.00,VWS V14.01,2013-02-15 20:01:00,
2013-02-15 14:06:00,16.9,7.5,30.28,West,259,7.0,7.0,66,0.00,,CLR,0.00,VWS V14.01,2013-02-15 20:06:00,
2013-02-15 14:11:00,16.9,7.2,30.28,WNW,284,6.0,7.0,65,0.00,,CLR,0.00,VWS V14.01,2013-02-15 20:11:00,
2013-02-15 14:16:00,16.6,6.9,30.28,West,260,6.0,8.0,65,0.00,,CLR,0.00,VWS V14.01,2013-02-15 20:16:00,
2013-02-15 14:22:00,16.6,7.2,30.29,WNW,290,4.0,5.0,66,0.00,,CLR,0.00,VWS V14.01,2013-02-15 20:22:00,
2013-02-15 14:28:00,16.6,6.9,30.29,West,271,3.0,5.0,65,0.00,,CLR,0.00,VWS V14.01,2013-02-15 20:28:00,
2013-02-15 14:34:00,16.7,7.0,30.29,NW,315,5.0,7.0,65,0.00,,CLR,0.00,VWS V14.01,2013-02-15 20:34:00,
2013-02-15 14:40:00,17.0,7.6,30.28,West,281,4.0,7.0,66,0.00,,CLR,0.00,VWS V14.01,2013-02-15 20:40:00,
2013-02-15 14:46:00,17.2,7.1,30.28,WNW,290,4.0,6.0,64,0.00,,CLR,0.00,VWS V14.01,2013-02-15 20:46:00,
2013-02-15 14:51:00,17.0,7.3,30.28,West,271,6.0,9.0,65,0.00,,CLR,0.00,VWS V14.01,2013-02-15 20:51:00,
2013-02-15 14:56:00,16.8,7.4,30.29,West,260,3.0,6.0,66,0.00,,CLR,0.00,VWS V14.01,2013-02-15 20:56:00,
2013-02-15 15:01:00,16.7,7.0,30.29,WNW,285,5.0,7.0,65,0.00,,CLR,0.00,VWS V14.01,2013-02-15 21:01:00,
2013-02-15 15:06:00,16.6,6.9,30.29,WNW,293,4.0,8.0,65,0.00,,CLR,0.00,VWS V14.01,2013-02-15 21:06:00,
2013-02-15 15:11:00,16.5,6.8,30.29,West,281,3.0,6.0,65,0.00,,CLR,0.00,VWS V14.01,2013-02-15 21:11:00,
2013-02-15 15:16:00,16.4,6.7,30.29,WNW,290,7.0,7.0,65,0.00,,CLR,0.00,VWS V14.01,2013-02-15 21:16:00,
2013-02-15 15:21:00,16.4,6.7,30.29,West,274,4.0,8.0,65,0.00,,CLR,0.00,VWS V14.01,2013-02-15 21:21:00,
2013-02-15 15:26:00,16.5,6.8,30.29,WNW,294,6.0,8.0,65,0.00,,CLR,0.00,VWS V14.01,2013-02-15 21:26:00,
2013-02-15 15:32:00,16.4,6.7,30.29,West,271,7.0,7.0,65,0.00,,CLR,0.00,VWS V14.01,2013-02-15 21:32:00,
2013-02-15 15:38:00,16.3,6.6,30.29,WNW,285,7.0,11.0,65,0.00,,CLR,0.00,VWS V14.01,2013-02-15 21:38:00,
2013-02-15 15:44:00,16.3,6.9,30.30,WNW,300,5.0,5.0,66,0.00,,CLR,0.00,VWS V14.01,2013-02-15 21:44:00,
2013-02-15 15:50:00,16.4,6.7,30.29,WNW,288,2.0,6.0,65,0.00,,CLR,0.00,VWS V14.01,2013-02-15 21:50:00,
2013-02-15 15:56:00,16.4,6.7,30.30,WNW,294,6.0,6.0,65,0.00,,CLR,0.00,VWS V14.01,2013-02-15 21:56:00,
2013-02-15 16:02:00,16.5,6.5,30.30,WNW,300,5.0,6.0,64,0.00,,CLR,0.00,VWS V14.01,2013-02-15 22:02:00,
2013-02-15 16:08:00,16.2,6.2,30.30,West,274,4.0,10.0,64,0.00,,CLR,0.00,VWS V14.01,2013-02-15 22:08:00,
2013-02-15 16:14:00,15.9,6.2,30.30,West,277,7.0,7.0,65,0.00,,CLR,0.00,VWS V14.01,2013-02-15 22:14:00,
2013-02-15 16:20:00,15.7,6.0,30.30,WNW,288,3.0,7.0,65,0.00,,CLR,0.00,VWS V14.01,2013-02-15 22:20:00,
2013-02-15 16:26:00,15.8,6.5,30.30,West,260,10.0,10.0,66,0.00,,CLR,0.00,VWS V14.01,2013-02-15 22:26:00,
2013-02-15 16:31:00,15.7,6.0,30.30,WNW,294,2.0,10.0,65,0.00,,CLR,0.00,VWS V14.01,2013-02-15 22:31:00,
2013-02-15 16:36:00,15.5,6.2,30.30,West,278,5.0,7.0,66,0.00,,CLR,0.00,VWS V14.01,2013-02-15 22:36:00,
2013-02-15 16:41:00,15.4,6.1,30.30,West,281,5.0,6.0,66,0.00,,CLR,0.00,VWS V14.01,2013-02-15 22:41:00,
2013-02-15 16:46:00,15.4,6.1,30.30,WNW,289,4.0,6.0,66,0.00,,CLR,0.00,VWS V14.01,2013-02-15 22:46:00,
2013-02-15 16:51:00,15.3,6.0,30.30,WNW,294,6.0,6.0,66,0.00,,CLR,0.00,VWS V14.01,2013-02-15 22:51:00,
2013-02-15 16:56:00,15.2,5.9,30.30,WNW,291,5.0,7.0,66,0.00,,CLR,0.00,VWS V14.01,2013-02-15 22:56:00,
2013-02-15 17:01:00,15.1,5.8,30.30,WNW,297,3.0,6.0,66,0.00,,CLR,0.00,VWS V14.01,2013-02-15 23:01:00,
2013-02-15 17:06:00,15.1,5.8,30.30,West,281,3.0,6.0,66,0.00,,CLR,0.00,VWS V14.01,2013-02-15 23:06:00,
2013-02-15 17:11:00,15.0,5.7,30.30,NW,311,4.0,5.0,66,0.00,,CLR,0.00,VWS V14.01,2013-02-15 23:11:00,
2013-02-15 17:16:00,14.8,5.5,30.31,WNW,287,4.0,5.0,66,0.00,,CLR,0.00,VWS V14.01,2013-02-15 23:16:00,
2013-02-15 17:21:00,14.7,5.4,30.31,West,276,3.0,6.0,66,0.00,,CLR,0.00,VWS V14.01,2013-02-15 23:21:00,
2013-02-15 17:26:00,14.5,5.2,30.30,West,266,4.0,4.0,66,0.00,,CLR,0.00,VWS V14.01,2013-02-15 23:26:00,
2013-02-15 17:31:00,14.2,5.3,30.30,West,271,2.0,5.0,67,0.00,,CLR,0.00,VWS V14.01,2013-02-15 23:31:00,
2013-02-15 17:36:00,13.8,4.9,30.30,West,281,1.0,4.0,67,0.00,,CLR,0.00,VWS V14.01,2013-02-15 23:36:00,
2013-02-15 17:41:00,13.2,4.6,30.30,WNW,299,2.0,2.0,68,0.00,,CLR,0.00,VWS V14.01,2013-02-15 23:41:00,
2013-02-15 17:47:00,12.7,4.5,30.30,WNW,285,2.0,3.0,69,0.00,,CLR,0.00,VWS V14.01,2013-02-15 23:47:00,
2013-02-15 17:53:00,12.2,4.3,30.30,West,275,2.0,3.0,70,0.00,,CLR,0.00,VWS V14.01,2013-02-15 23:53:00,
2013-02-15 17:59:00,11.8,3.9,30.30,West,280,2.0,2.0,70,0.00,,CLR,0.00,VWS V14.01,2013-02-15 23:59:00,
2013-02-15 18:05:00,11.3,3.7,30.30,West,267,2.0,4.0,71,0.00,,CLR,0.00,VWS V14.01,2013-02-16 00:05:00,
2013-02-15 18:11:00,10.3,3.1,30.30,West,268,4.0,4.0,72,0.00,,CLR,0.00,VWS V14.01,2013-02-16 00:11:00,
2013-02-15 18:17:00,9.7,3.1,30.31,West,281,3.0,4.0,74,0.00,,CLR,0.00,VWS V14.01,2013-02-16 00:17:00,
2013-02-15 18:23:00,9.4,3.7,30.31,West,278,2.0,3.0,77,0.00,,CLR,0.00,VWS V14.01,2013-02-16 00:23:00,
2013-02-15 18:29:00,9.3,3.8,30.31,West,281,2.0,3.0,78,0.00,,CLR,0.00,VWS V14.01,2013-02-16 00:29:00,
2013-02-15 18:35:00,9.2,4.0,30.31,West,267,1.0,2.0,79,0.00,,CLR,0.00,VWS V14.01,2013-02-16 00:35:00,
2013-02-15 18:41:00,9.0,3.8,30.31,West,272,3.0,3.0,79,0.00,,CLR,0.00,VWS V14.01,2013-02-16 00:41:00,
2013-02-15 18:46:00,8.8,3.9,30.31,West,277,1.0,3.0,80,0.00,,CLR,0.00,VWS V14.01,2013-02-16 00:46:00,
2013-02-15 18:51:00,8.7,3.8,30.31,West,262,2.0,4.0,80,0.00,,CLR,0.00,VWS V14.01,2013-02-16 00:51:00,
2013-02-15 18:56:00,8.5,3.6,30.31,West,275,2.0,3.0,80,0.00,,CLR,0.00,VWS V14.01,2013-02-16 00:56:00,
2013-02-15 19:01:00,8.2,3.6,30.31,West,276,2.0,3.0,81,0.00,,CLR,0.00,VWS V14.01,2013-02-16 01:01:00,
2013-02-15 19:06:00,8.1,3.5,30.31,West,259,2.0,3.0,81,0.00,,CLR,0.00,VWS V14.01,2013-02-16 01:06:00,
2013-02-15 19:12:00,7.8,3.2,30.31,West,277,2.0,2.0,81,0.00,,CLR,0.00,VWS V14.01,2013-02-16 01:12:00,
2013-02-15 19:18:00,7.3,2.7,30.31,West,276,2.0,2.0,81,0.00,,CLR,0.00,VWS V14.01,2013-02-16 01:18:00,
2013-02-15 19:24:00,6.9,2.6,30.30,West,274,2.0,3.0,82,0.00,,CLR,0.00,VWS V14.01,2013-02-16 01:24:00,
2013-02-15 19:30:00,6.9,2.8,30.30,West,277,3.0,3.0,83,0.00,,CLR,0.00,VWS V14.01,2013-02-16 01:30:00,
2013-02-15 19:35:00,6.8,2.7,30.30,West,270,2.0,3.0,83,0.00,,CLR,0.00,VWS V14.01,2013-02-16 01:35:00,
2013-02-15 19:41:00,6.2,1.9,30.30,West,267,2.0,2.0,82,0.00,,CLR,0.00,VWS V14.01,2013-02-16 01:41:00,
2013-02-15 19:46:00,5.8,1.8,30.30,West,279,1.0,3.0,83,0.00,,CLR,0.00,VWS V14.01,2013-02-16 01:46:00,
2013-02-15 19:52:00,6.0,2.2,30.30,West,266,5.0,5.0,84,0.00,,CLR,0.00,VWS V14.01,2013-02-16 01:52:00,
2013-02-15 19:58:00,6.2,2.7,30.30,West,276,1.0,4.0,85,0.00,,CLR,0.00,VWS V14.01,2013-02-16 01:58:00,
2013-02-15 20:04:00,6.1,2.3,30.30,West,267,3.0,3.0,84,0.00,,CLR,0.00,VWS V14.01,2013-02-16 02:04:00,
2013-02-15 20:10:00,5.7,1.9,30.30,WNW,283,1.0,3.0,84,0.00,,CLR,0.00,VWS V14.01,2013-02-16 02:10:00,
2013-02-15 20:16:00,5.5,2.0,30.30,WNW,283,4.0,4.0,85,0.00,,CLR,0.00,VWS V14.01,2013-02-16 02:16:00,
2013-02-15 20:21:00,5.5,2.0,30.30,West,271,1.0,4.0,85,0.00,,CLR,0.00,VWS V14.01,2013-02-16 02:21:00,
2013-02-15 20:26:00,5.3,1.8,30.30,WSW,258,1.0,2.0,85,0.00,,CLR,0.00,VWS V14.01,2013-02-16 02:26:00,
2013-02-15 20:32:00,4.9,1.1,30.30,West,276,1.0,2.0,84,0.00,,CLR,0.00,VWS V14.01,2013-02-16 02:32:00,
2013-02-15 20:38:00,4.5,1.0,30.30,West,274,1.0,1.0,85,0.00,,CLR,0.00,VWS V14.01,2013-02-16 02:38:00,
2013-02-15 20:44:00,4.3,0.8,30.30,West,276,2.0,2.0,85,0.00,,CLR,0.00,VWS V14.01,2013-02-16 02:44:00,
2013-02-15 20:50:00,4.1,0.6,30.30,West,271,1.0,2.0,85,0.00,,CLR,0.00,VWS V14.01,2013-02-16 02:50:00,
2013-02-15 20:55:00,4.0,0.8,30.30,West,277,1.0,3.0,86,0.00,,CLR,0.00,VWS V14.01,2013-02-16 02:55:00,
2013-02-15 21:01:00,4.0,0.8,30.30,West,271,1.0,4.0,86,0.00,,CLR,0.00,VWS V14.01,2013-02-16 03:01:00,
2013-02-15 21:06:00,4.1,0.9,30.30,West,276,1.0,3.0,86,0.00,,CLR,0.00,VWS V14.01,2013-02-16 03:06:00,
2013-02-15 21:11:00,4.2,0.9,30.30,West,281,1.0,2.0,86,0.00,,CLR,0.00,VWS V14.01,2013-02-16 03:11:00,
2013-02-15 21:16:00,4.4,1.1,30.29,West,274,2.0,3.0,86,0.00,,CLR,0.00,VWS V14.01,2013-02-16 03:16:00,
2013-02-15 21:21:00,4.3,1.0,30.30,West,274,1.0,3.0,86,0.00,,CLR,0.00,VWS V14.01,2013-02-16 03:21:00,
2013-02-15 21:26:00,4.1,0.6,30.29,West,273,1.0,2.0,85,0.00,,CLR,0.00,VWS V14.01,2013-02-16 03:26:00,
2013-02-15 21:31:00,4.1,0.9,30.29,West,276,1.0,3.0,86,0.00,,CLR,0.00,VWS V14.01,2013-02-16 03:31:00,
2013-02-15 21:37:00,4.0,0.8,30.29,West,276,2.0,4.0,86,0.00,,CLR,0.00,VWS V14.01,2013-02-16 03:37:00,
2013-02-15 21:43:00,3.8,0.3,30.29,West,274,2.0,3.0,85,0.00,,CLR,0.00,VWS V14.01,2013-02-16 03:43:00,
2013-02-15 21:49:00,3.6,0.1,30.30,West,274,2.0,3.0,85,0.00,,CLR,0.00,VWS V14.01,2013-02-16 03:49:00,
2013-02-15 21:55:00,3.4,-0.1,30.30,West,276,2.0,3.0,85,0.00,,CLR,0.00,VWS V14.01,2013-02-16 03:55:00,
2013-02-15 22:01:00,3.1,-0.4,30.29,West,269,2.0,3.0,85,0.00,,CLR,0.00,VWS V14.01,2013-02-16 04:01:00,
2013-02-15 22:06:00,2.9,-0.6,30.30,West,276,2.0,2.0,85,0.00,,CLR,0.00,VWS V14.01,2013-02-16 04:06:00,
2013-02-15 22:11:00,3.1,-0.1,30.30,West,279,1.0,4.0,86,0.00,,CLR,0.00,VWS V14.01,2013-02-16 04:11:00,
2013-02-15 22:16:00,3.2,0.0,30.30,WNW,282,0.0,3.0,86,0.00,,CLR,0.00,VWS V14.01,2013-02-16 04:16:00,
2013-02-15 22:21:00,3.2,0.0,30.30,West,267,2.0,2.0,86,0.00,,CLR,0.00,VWS V14.01,2013-02-16 04:21:00,
2013-02-15 22:27:00,2.9,-0.3,30.30,West,278,2.0,3.0,86,0.00,,CLR,0.00,VWS V14.01,2013-02-16 04:27:00,
2013-02-15 22:33:00,2.8,-0.4,30.29,West,274,1.0,2.0,86,0.00,,CLR,0.00,VWS V14.01,2013-02-16 04:33:00,
2013-02-15 22:39:00,2.8,-0.4,30.29,West,274,1.0,1.0,86,0.00,,CLR,0.00,VWS V14.01,2013-02-16 04:39:00,
2013-02-15 22:45:00,3.0,0.0,30.29,West,271,3.0,3.0,87,0.00,,CLR,0.00,VWS V14.01,2013-02-16 04:45:00,
2013-02-15 22:51:00,3.1,0.1,30.29,West,281,1.0,3.0,87,0.00,,CLR,0.00,VWS V14.01,2013-02-16 04:51:00,
2013-02-15 22:56:00,3.1,0.1,30.29,WNW,285,3.0,3.0,87,0.00,,CLR,0.00,VWS V14.01,2013-02-16 04:56:00,
2013-02-15 23:01:00,3.1,0.1,30.29,West,274,3.0,3.0,87,0.00,,CLR,0.00,VWS V14.01,2013-02-16 05:01:00,
2013-02-15 23:03:00,3.2,0.2,30.29,West,264,3.0,3.0,87,0.00,,CLR,0.00,VWS V14.01,2013-02-16 05:03:00,
2013-02-15 23:09:00,3.2,0.2,30.29,West,264,1.0,4.0,87,0.00,,CLR,0.00,VWS V14.01,2013-02-16 05:09:00,
2013-02-15 23:15:00,3.2,0.2,30.29,West,274,1.0,2.0,87,0.00,,CLR,0.00,VWS V14.01,2013-02-16 05:15:00,
2013-02-15 23:20:00,2.8,-0.4,30.29,WNW,287,2.0,2.0,86,0.00,,CLR,0.00,VWS V14.01,2013-02-16 05:20:00,
2013-02-15 23:23:00,2.7,-0.5,30.29,West,273,2.0,2.0,86,0.00,,CLR,0.00,VWS V14.01,2013-02-16 05:23:00,
2013-02-15 23:29:00,2.2,-1.0,30.29,West,269,1.0,2.0,86,0.00,,CLR,0.00,VWS V14.01,2013-02-16 05:29:00,
2013-02-15 23:35:00,1.6,-1.9,30.29,West,277,1.0,3.0,85,0.00,,CLR,0.00,VWS V14.01,2013-02-16 05:35:00,
2013-02-15 23:42:00,1.0,-2.5,30.28,West,271,2.0,2.0,85,0.00,,CLR,0.00,VWS V14.01,2013-02-16 05:42:00,
2013-02-15 23:48:00,0.3,-3.1,30.29,West,276,1.0,2.0,85,0.00,,CLR,0.00,VWS V14.01,2013-02-16 05:48:00,
2013-02-15 23:54:00,-0.2,-3.6,30.28,West,266,2.0,2.0,85,0.00,,CLR,0.00,VWS V14.01,2013-02-16 05:54:00,